EDDB/SXF METAR and TAF weather

Enter ICAO airport designator
Station Type Date Time Source
EDDB METAR 2018/09/21 22:50 UTC NOAA

EDDB 212250Z 24009KT CAVOK 11/09 Q1012 NOSIG


Station Type Date Time Source
EDDB Decoded METAR 2018/09/21 22:50 UTC NOAA

Berlin-Schoenefeld, Germany (EDDB) 52-23N 013-31E 50M
Sep 21, 2018 - 06:50 PM EDT / 2018.09.21 2250 UTC
Wind: from the WSW (240 degrees) at 10 MPH (9 KT):0
Visibility: greater than 7 mile(s):0
Temperature: 51 F (11 C)
Dew Point: 48 F (9 C)
Relative Humidity: 87%
Pressure (altimeter): 29.88 in. Hg (1012 hPa)
ob: EDDB 212250Z 24009KT CAVOK 11/09 Q1012 NOSIG
cycle: 23

Station Type Date Time Source
EDDB TAF 2018/09/21 18:30 UTC NOAA

TAF TAF EDDB 211700Z 2118/2218 29013KT 9999 SCT030
BECMG 2118/2121 26008KT PROB30
TEMPO 2203/2206 BKN012
BECMG 2206/2209 27015G25KT
BECMG 2215/2218 27005KT


Example: see airport list